Time;durP1;ratioP1;P1;durP2;ratioP2;P2;SDS_P1;SDS_P2;PMS_P1;PMS_P2;Temp;Humidity;BMP_temperature;BMP_pressure;BME280_temperature;BME280_humidity;BME280_pressure;Samples;Min_cycle;Max_cycle;Signal;HPM_P1;HPM_P2
2022/03/20 00:01:11;;;;;;;29.63;17.67;;;2.30;99.90;;;;;;5071230;28;20024;-78
2022/03/20 00:03:36;;;;;;;30.90;18.50;;;2.40;99.90;;;;;;5072086;28;20111;-79
2022/03/20 00:06:03;;;;;;;29.40;18.13;;;2.40;99.90;;;;;;5071219;28;20025;-79
2022/03/20 00:08:30;;;;;;;29.95;18.05;;;2.40;99.90;;;;;;5070207;28;20474;-78
2022/03/20 00:10:59;;;;;;;31.77;18.67;;;2.40;99.90;;;;;;5074372;28;20028;-79
2022/03/20 00:13:26;;;;;;;29.20;17.67;;;2.40;99.90;;;;;;5074717;28;20308;-77
2022/03/20 00:15:53;;;;;;;26.65;17.00;;;2.40;99.90;;;;;;5075682;28;20516;-78
2022/03/20 00:18:21;;;;;;;33.30;18.58;;;2.40;99.90;;;;;;5074466;28;20078;-78
2022/03/20 00:20:53;;;;;;;29.40;17.52;;;2.40;99.90;;;;;;5074970;28;20025;-77
2022/03/20 00:23:18;;;;;;;30.55;16.95;;;2.40;99.90;;;;;;5074047;28;20496;-78
2022/03/20 00:25:46;;;;;;;28.05;18.52;;;2.40;99.90;;;;;;5075001;28;20033;-78
2022/03/20 00:28:14;;;;;;;32.30;18.50;;;2.40;99.90;;;;;;5074267;28;20025;-78
2022/03/20 00:30:40;;;;;;;31.98;18.08;;;2.40;99.90;;;;;;5074910;28;20016;-79
2022/03/20 00:33:06;;;;;;;27.25;17.75;;;2.30;99.90;;;;;;5074588;28;20067;-74
2022/03/20 00:35:32;;;;;;;28.85;17.55;;;2.40;99.90;;;;;;5074186;28;20024;-79
2022/03/20 00:37:58;;;;;;;25.20;15.82;;;2.40;99.90;;;;;;5074684;28;20480;-80
2022/03/20 00:40:24;;;;;;;31.15;17.70;;;2.40;99.90;;;;;;5073855;28;20409;-79
2022/03/20 00:42:50;;;;;;;25.95;15.90;;;2.40;99.90;;;;;;5074806;28;20020;-80
2022/03/20 00:45:16;;;;;;;26.67;17.05;;;2.30;99.90;;;;;;5073771;28;20028;-80
2022/03/20 00:47:42;;;;;;;31.92;16.55;;;2.30;99.90;;;;;;5074956;28;20075;-80
2022/03/20 00:50:08;;;;;;;26.48;16.42;;;2.30;99.90;;;;;;5066909;28;20060;-74
2022/03/20 00:52:34;;;;;;;27.73;15.13;;;2.30;99.90;;;;;;5054041;28;20025;-79
2022/03/20 00:55:00;;;;;;;27.25;16.65;;;2.40;99.90;;;;;;5054626;28;20033;-80
2022/03/20 00:57:26;;;;;;;30.45;17.65;;;2.30;99.90;;;;;;5053462;28;20029;-79
2022/03/20 00:59:52;;;;;;;30.60;16.40;;;2.40;99.90;;;;;;5054598;28;20462;-79
2022/03/20 01:02:18;;;;;;;28.30;16.42;;;2.40;99.90;;;;;;5054602;28;20040;-79
2022/03/20 01:04:43;;;;;;;27.52;15.75;;;2.40;99.90;;;;;;5054585;28;20065;-79
2022/03/20 01:07:09;;;;;;;26.20;16.20;;;2.40;99.90;;;;;;5056480;28;20051;-74
2022/03/20 01:09:35;;;;;;;28.58;16.60;;;2.40;99.90;;;;;;5054000;28;20055;-80
2022/03/20 01:12:02;;;;;;;26.58;15.77;;;2.40;99.90;;;;;;5036628;28;20029;-80
2022/03/20 01:14:28;;;;;;;27.08;16.70;;;2.40;99.90;;;;;;5053312;28;20063;-79
2022/03/20 01:16:54;;;;;;;24.10;15.18;;;2.40;99.90;;;;;;5054055;28;20036;-79
2022/03/20 01:19:24;;;;;;;29.13;15.70;;;2.40;99.90;;;;;;5053345;28;20087;-78
2022/03/20 01:21:50;;;;;;;29.03;17.00;;;2.40;99.90;;;;;;5053888;28;20025;-79
2022/03/20 01:24:16;;;;;;;25.95;14.95;;;2.50;99.90;;;;;;5052974;28;20091;-78
2022/03/20 01:26:42;;;;;;;24.77;16.17;;;2.50;99.90;;;;;;5054040;28;20036;-78
2022/03/20 01:29:07;;;;;;;24.83;14.95;;;2.50;99.90;;;;;;5053860;28;20389;-76
2022/03/20 01:31:34;;;;;;;25.05;14.95;;;2.50;99.90;;;;;;5035093;28;20029;-79
2022/03/20 01:34:01;;;;;;;25.30;15.88;;;2.50;99.90;;;;;;5053676;28;20033;-78
2022/03/20 01:36:27;;;;;;;27.08;15.70;;;2.50;99.90;;;;;;5052864;28;20067;-79
2022/03/20 01:38:53;;;;;;;29.20;16.85;;;2.50;99.90;;;;;;5053223;28;20025;-79
2022/03/20 01:41:19;;;;;;;30.25;16.88;;;2.50;99.90;;;;;;5052600;28;20032;-79
2022/03/20 01:43:59;;;;;;;28.08;15.27;;;2.50;99.90;;;;;;5053519;28;20029;-79
2022/03/20 01:46:25;;;;;;;27.75;15.57;;;2.60;99.90;;;;;;5052707;28;20370;-79
2022/03/20 01:48:52;;;;;;;27.15;16.20;;;2.60;99.90;;;;;;5053331;28;20036;-78
2022/03/20 01:52:10;;;;;;;27.83;16.63;;;2.60;99.90;;;;;;5069379;28;20067;-79
2022/03/20 01:54:04;;;;;;;30.35;15.07;;;2.50;99.90;;;;;;5073037;28;20028;-79
2022/03/20 01:56:33;;;;;;;25.83;15.93;;;2.50;99.90;;;;;;5072441;28;20031;-79
2022/03/20 01:59:01;;;;;;;25.95;15.55;;;2.50;99.90;;;;;;5073449;28;20028;-79
2022/03/20 02:01:26;;;;;;;27.13;16.38;;;2.50;99.90;;;;;;5071463;28;20032;-78
2022/03/20 02:03:53;;;;;;;25.85;16.27;;;2.50;99.90;;;;;;5073414;28;20029;-80
2022/03/20 02:06:19;;;;;;;27.35;16.60;;;2.50;99.90;;;;;;5072186;28;20446;-77
2022/03/20 02:08:45;;;;;;;29.88;17.30;;;2.40;99.90;;;;;;5073181;28;20036;-77
2022/03/20 02:11:10;;;;;;;25.58;15.93;;;2.40;99.90;;;;;;5072610;28;20028;-73
2022/03/20 02:13:36;;;;;;;26.75;16.27;;;2.40;99.90;;;;;;5072748;28;20036;-78
2022/03/20 02:16:02;;;;;;;28.50;17.73;;;2.50;99.90;;;;;;5073032;28;20037;-79
2022/03/20 02:18:28;;;;;;;29.80;16.70;;;2.50;99.90;;;;;;5072138;28;20032;-78
2022/03/20 02:20:55;;;;;;;29.02;16.55;;;2.50;99.90;;;;;;5073056;28;20028;-78
2022/03/20 02:23:20;;;;;;;28.90;16.35;;;2.50;99.90;;;;;;5071995;28;20028;-78
2022/03/20 02:25:51;;;;;;;27.27;16.08;;;2.50;99.90;;;;;;5072322;28;20085;-79
2022/03/20 02:28:17;;;;;;;26.40;15.57;;;2.50;99.90;;;;;;5071968;28;20032;-77
2022/03/20 02:30:43;;;;;;;30.27;16.50;;;2.50;99.90;;;;;;5072342;28;20477;-77
2022/03/20 02:33:09;;;;;;;25.08;15.07;;;2.50;99.90;;;;;;5071914;28;20029;-78
2022/03/20 02:35:36;;;;;;;28.45;16.58;;;2.50;99.90;;;;;;5037392;28;20060;-79
2022/03/20 02:38:02;;;;;;;29.92;16.35;;;2.50;99.90;;;;;;5054770;28;20358;-79
2022/03/20 02:40:28;;;;;;;26.15;16.08;;;2.50;99.90;;;;;;5071574;28;20071;-79
2022/03/20 02:42:54;;;;;;;27.45;15.70;;;2.50;99.90;;;;;;5072386;28;20052;-79
2022/03/20 02:45:30;;;;;;;25.40;16.33;;;2.50;99.90;;;;;;5071595;28;20043;-79
2022/03/20 02:47:58;;;;;;;28.77;16.40;;;2.50;99.90;;;;;;5072441;28;20082;-80
2022/03/20 02:50:29;;;;;;;25.67;15.52;;;2.50;99.90;;;;;;5061964;28;20052;-80
2022/03/20 02:53:02;;;;;;;29.23;16.05;;;2.50;99.90;;;;;;5052340;28;20029;-79
2022/03/20 02:55:31;;;;;;;27.90;16.48;;;2.60;99.90;;;;;;5051400;28;20047;-79
2022/03/20 02:58:01;;;;;;;33.22;16.98;;;2.60;99.90;;;;;;5052249;28;20025;-79
2022/03/20 03:00:29;;;;;;;26.33;16.73;;;2.60;99.90;;;;;;5051525;28;20377;-79
2022/03/20 03:02:59;;;;;;;26.52;17.00;;;2.60;99.90;;;;;;5052159;28;20106;-80
2022/03/20 03:05:27;;;;;;;26.08;15.20;;;2.60;99.90;;;;;;5051441;28;20028;-79
2022/03/20 03:10:56;;;;;;;25.02;15.10;;;2.50;99.90;;;;;;5051581;28;20574;-79
2022/03/20 03:13:28;;;;;;;28.08;15.00;;;2.50;99.90;;;;;;5051037;28;20029;-79
2022/03/20 03:15:55;;;;;;;27.85;16.45;;;2.50;99.90;;;;;;5052197;28;20031;-78
2022/03/20 03:18:22;;;;;;;27.77;17.10;;;2.50;99.90;;;;;;5051094;28;20108;-78
2022/03/20 03:20:48;;;;;;;28.35;16.10;;;2.60;99.90;;;;;;5034083;28;20037;-79
2022/03/20 03:23:14;;;;;;;27.92;16.17;;;2.50;99.90;;;;;;5051063;28;20484;-73
2022/03/20 03:25:40;;;;;;;30.00;16.58;;;2.50;99.90;;;;;;5051456;28;20025;-78
2022/03/20 03:28:07;;;;;;;29.10;16.83;;;2.50;99.90;;;;;;5051825;28;20025;-78
2022/03/20 03:30:33;;;;;;;32.40;17.92;;;2.50;99.90;;;;;;5050795;28;20021;-78
2022/03/20 03:33:00;;;;;;;28.35;16.85;;;2.50;99.90;;;;;;5051621;28;20025;-78
2022/03/20 03:35:46;;;;;;;28.65;17.27;;;2.50;99.90;;;;;;5050569;28;20513;-76
2022/03/20 03:38:16;;;;;;;26.95;16.73;;;2.50;99.90;;;;;;5051790;28;20375;-79
2022/03/20 03:40:45;;;;;;;28.20;17.13;;;2.50;99.90;;;;;;5051582;28;20025;-78
2022/03/20 03:43:11;;;;;;;30.23;17.30;;;2.50;99.90;;;;;;5051470;28;20029;-77
2022/03/20 03:45:39;;;;;;;28.25;17.00;;;2.50;99.90;;;;;;5052892;28;20029;-78
2022/03/20 03:48:06;;;;;;;29.95;17.80;;;2.50;99.90;;;;;;5056534;28;20024;-78
2022/03/20 03:50:31;;;;;;;28.02;18.10;;;2.50;99.90;;;;;;5065249;28;20174;-78
2022/03/20 03:52:57;;;;;;;29.67;18.20;;;2.50;99.90;;;;;;5075859;28;20119;-78
2022/03/20 03:55:22;;;;;;;27.42;16.33;;;2.50;99.90;;;;;;5074748;28;20024;-79
2022/03/20 03:57:50;;;;;;;30.10;17.27;;;2.60;99.90;;;;;;5075974;28;20063;-78
2022/03/20 04:00:17;;;;;;;30.23;18.02;;;2.60;99.90;;;;;;5076342;28;20066;-74
2022/03/20 04:02:43;;;;;;;29.77;18.27;;;2.70;99.90;;;;;;5061908;28;20048;-78
2022/03/20 04:05:09;;;;;;;29.25;18.45;;;2.70;99.90;;;;;;5083701;28;20374;-80
2022/03/20 04:07:37;;;;;;;26.00;16.05;;;2.70;99.90;;;;;;5087562;28;20070;-78
2022/03/20 04:10:07;;;;;;;34.88;18.25;;;2.80;99.90;;;;;;5075626;28;20112;-78
2022/03/20 04:12:36;;;;;;;;;;;2.90;99.90;;;;;;5075114;28;20029;-79
2022/03/20 04:15:04;;;;;;;31.35;18.27;;;2.90;99.90;;;;;;5075456;28;19908;-79
2022/03/20 04:17:30;;;;;;;33.80;19.40;;;2.90;99.90;;;;;;5074652;28;20071;-79
2022/03/20 04:19:57;;;;;;;33.67;18.40;;;3.00;99.90;;;;;;5075522;28;20060;-78
2022/03/20 04:22:24;;;;;;;29.52;17.80;;;3.00;99.90;;;;;;5074487;28;20033;-78
2022/03/20 04:24:50;;;;;;;33.17;18.35;;;3.10;99.90;;;;;;5075230;28;20028;-79
2022/03/20 04:27:16;;;;;;;30.70;18.27;;;3.10;99.90;;;;;;5074557;28;20069;-74
2022/03/20 04:29:42;;;;;;;34.65;19.25;;;3.10;99.90;;;;;;5075188;28;20361;-78
2022/03/20 04:32:08;;;;;;;29.02;18.73;;;3.00;99.90;;;;;;5075034;28;20028;-78
2022/03/20 04:34:35;;;;;;;35.03;19.73;;;2.90;99.90;;;;;;5074048;28;20445;-77
2022/03/20 04:37:04;;;;;;;32.88;19.60;;;2.90;99.90;;;;;;5074988;28;20031;-78
2022/03/20 04:39:30;;;;;;;35.92;18.77;;;2.90;99.90;;;;;;5074154;28;20032;-77
2022/03/20 04:41:55;;;;;;;32.50;19.17;;;2.90;99.90;;;;;;5074819;28;20028;-77
2022/03/20 04:44:22;;;;;;;35.60;20.13;;;3.00;99.90;;;;;;5074076;28;20024;-76
2022/03/20 04:46:48;;;;;;;34.35;20.85;;;3.00;99.90;;;;;;5074983;28;20115;-78
2022/03/20 05:00:10;;;;;;;35.55;19.67;;;3.40;99.90;;;;;;5074951;28;20081;-77
2022/03/20 05:02:36;;;;;;;33.30;21.33;;;3.50;99.90;;;;;;5074174;28;20139;-77
2022/03/20 05:05:03;;;;;;;32.28;19.23;;;3.60;99.90;;;;;;5074495;28;20436;-77
2022/03/20 05:07:29;;;;;;;32.83;20.13;;;3.70;99.90;;;;;;5073880;28;20029;-77
2022/03/20 05:15:22;;;;;;;37.47;19.98;;;3.80;99.90;;;;;;5073430;28;20035;-78
2022/03/20 05:17:48;;;;;;;33.95;20.67;;;3.80;99.90;;;;;;5074255;28;20033;-77
2022/03/20 05:20:14;;;;;;;37.33;20.40;;;3.90;99.90;;;;;;5073779;28;20024;-78
2022/03/20 05:22:40;;;;;;;37.00;21.45;;;3.90;99.90;;;;;;5073176;28;20043;-77
2022/03/20 05:25:09;;;;;;;35.15;21.58;;;3.90;99.90;;;;;;5073928;28;20381;-77
2022/03/20 05:27:35;;;;;;;36.90;20.90;;;4.00;99.90;;;;;;5072972;28;20031;-77
2022/03/20 05:30:03;;;;;;;36.17;21.67;;;4.00;99.90;;;;;;5073425;28;20486;-77
2022/03/20 05:32:28;;;;;;;35.53;22.05;;;4.10;99.70;;;;;;5073092;28;20036;-79
2022/03/20 05:34:54;;;;;;;36.17;21.20;;;4.10;99.90;;;;;;5073835;28;20035;-79
2022/03/20 05:37:19;;;;;;;37.30;21.95;;;4.10;99.70;;;;;;5073461;28;20032;-73
2022/03/20 05:39:45;;;;;;;32.45;20.70;;;4.10;99.70;;;;;;5073926;28;20025;-77
2022/03/20 05:42:14;;;;;;;37.08;22.35;;;4.10;99.40;;;;;;5073490;28;20477;-78
2022/03/20 05:44:40;;;;;;;34.25;21.70;;;4.10;99.60;;;;;;5072664;28;20033;-78
2022/03/20 05:47:07;;;;;;;35.80;21.58;;;4.20;99.60;;;;;;5073581;28;20466;-79
2022/03/20 05:49:32;;;;;;;34.38;20.55;;;4.30;99.30;;;;;;5072178;28;20428;-78
2022/03/20 05:51:59;;;;;;;35.90;19.77;;;4.30;99.20;;;;;;5073548;28;20033;-77
2022/03/20 05:54:25;;;;;;;35.25;21.58;;;4.40;99.30;;;;;;5072817;28;20082;-78
2022/03/20 05:59:36;;;;;;;37.03;21.77;;;4.50;98.70;;;;;;5072451;28;20143;-72
2022/03/20 06:02:03;;;;;;;34.70;21.65;;;4.50;98.90;;;;;;5073148;28;20396;-74
2022/03/20 06:04:31;;;;;;;35.78;21.17;;;4.60;98.20;;;;;;5071989;28;20068;-71
2022/03/20 06:06:58;;;;;;;32.65;21.02;;;4.60;98.20;;;;;;5072401;28;20107;-72
2022/03/20 06:09:23;;;;;;;40.50;22.42;;;4.70;98.20;;;;;;5071722;28;20041;-72
2022/03/20 06:11:49;;;;;;;32.17;20.73;;;4.70;97.70;;;;;;5072954;28;20462;-72
2022/03/20 06:14:17;;;;;;;32.97;20.83;;;4.80;97.80;;;;;;5073489;28;20383;-73
2022/03/20 06:16:47;;;;;;;35.75;22.65;;;4.90;97.90;;;;;;5073016;28;20066;-74
2022/03/20 06:19:15;;;;;;;34.22;20.88;;;5.00;97.40;;;;;;5072537;28;20419;-72
2022/03/20 06:21:41;;;;;;;35.50;21.45;;;5.10;97.30;;;;;;5071159;28;20025;-72
2022/03/20 06:24:07;;;;;;;38.33;21.10;;;5.20;97.20;;;;;;5072987;28;20020;-72
2022/03/20 06:26:32;;;;;;;34.05;22.15;;;5.20;96.50;;;;;;5071747;28;20021;-76
2022/03/20 06:28:58;;;;;;;32.35;20.10;;;5.30;96.60;;;;;;5072734;28;20067;-72
2022/03/20 06:31:24;;;;;;;32.50;20.27;;;5.30;96.70;;;;;;5071966;28;20381;-78
2022/03/20 06:33:50;;;;;;;32.40;21.40;;;5.30;96.70;;;;;;5071594;28;20472;-73
2022/03/20 06:36:16;;;;;;;36.03;21.48;;;5.40;96.30;;;;;;5072297;28;20029;-73
2022/03/20 06:38:41;;;;;;;34.10;21.63;;;5.40;96.10;;;;;;5071758;28;20119;-74
2022/03/20 06:41:08;;;;;;;39.00;23.15;;;5.50;96.10;;;;;;5072441;28;20466;-74
2022/03/20 06:43:38;;;;;;;34.38;22.35;;;5.50;95.80;;;;;;5071592;28;20021;-73
2022/03/20 06:46:07;;;;;;;38.47;23.52;;;5.60;95.90;;;;;;5072008;28;20037;-80
2022/03/20 06:48:33;;;;;;;37.15;22.95;;;5.70;95.60;;;;;;5071182;28;20159;-73
2022/03/20 06:51:00;;;;;;;38.80;23.08;;;5.80;95.40;;;;;;5071933;28;20132;-73
2022/03/20 06:53:26;;;;;;;34.33;22.65;;;5.90;94.80;;;;;;5071218;28;20031;-72
2022/03/20 06:55:52;;;;;;;38.08;24.20;;;5.90;94.60;;;;;;5053882;28;20032;-72
2022/03/20 06:58:22;;;;;;;35.72;23.10;;;6.00;94.70;;;;;;5072266;28;20044;-72
2022/03/20 07:00:51;;;;;;;38.22;23.80;;;6.00;94.30;;;;;;5071853;28;20052;-75
2022/03/20 07:03:16;;;;;;;34.70;22.13;;;6.10;93.90;;;;;;5072082;28;20056;-73
2022/03/20 07:05:43;;;;;;;36.95;23.00;;;6.10;93.90;;;;;;5071023;28;20079;-73
2022/03/20 07:08:09;;;;;;;38.03;22.67;;;6.10;93.90;;;;;;5072093;28;20025;-73
2022/03/20 07:10:36;;;;;;;37.78;23.83;;;6.20;93.70;;;;;;5071450;28;20115;-73
2022/03/20 07:15:50;;;;;;;40.42;23.17;;;6.30;93.50;;;;;;5071275;28;20116;-73
2022/03/20 07:18:19;;;;;;;38.97;24.10;;;6.40;93.50;;;;;;5071761;28;20048;-73
2022/03/20 07:20:47;;;;;;;36.58;23.13;;;6.50;93.10;;;;;;5071046;28;20111;-72
2022/03/20 07:23:13;;;;;;;36.97;24.20;;;6.50;93.20;;;;;;5071920;28;20378;-75
2022/03/20 07:31:14;;;;;;;38.22;23.40;;;6.60;93.10;;;;;;5071327;28;20055;-73
2022/03/20 07:33:39;;;;;;;37.83;23.70;;;6.70;93.00;;;;;;5070869;28;20035;-74
2022/03/20 07:36:06;;;;;;;34.70;23.65;;;6.70;92.70;;;;;;5071689;28;20029;-74
2022/03/20 07:38:32;;;;;;;38.97;24.48;;;6.70;92.20;;;;;;5070804;28;20078;-73
2022/03/20 07:40:59;;;;;;;39.83;23.40;;;6.90;92.00;;;;;;5071931;28;20032;-73
2022/03/20 07:43:26;;;;;;;38.42;24.85;;;6.90;92.00;;;;;;5070791;28;20020;-71
2022/03/20 07:45:52;;;;;;;34.15;22.50;;;7.00;91.80;;;;;;5051529;28;20075;-71
2022/03/20 07:48:21;;;;;;;37.30;22.75;;;7.10;91.80;;;;;;5051683;28;20029;-71
2022/03/20 07:50:49;;;;;;;35.40;23.77;;;7.20;91.60;;;;;;5037900;28;20049;-70
2022/03/20 07:53:17;;;;;;;36.22;22.95;;;7.30;91.30;;;;;;5031725;28;20498;-74
2022/03/20 07:55:45;;;;;;;35.28;23.05;;;7.40;91.30;;;;;;5011813;28;20025;-78
2022/03/20 07:58:12;;;;;;;36.08;23.45;;;7.60;90.30;;;;;;5066471;28;20031;-76
2022/03/20 08:00:40;;;;;;;36.00;23.70;;;7.60;89.70;;;;;;5071607;28;20031;-73
2022/03/20 08:03:06;;;;;;;34.67;22.25;;;7.60;89.90;;;;;;5073507;28;20032;-75
2022/03/20 08:05:32;;;;;;;35.17;22.65;;;7.70;89.30;;;;;;5074191;28;20024;-74
2022/03/20 08:08:02;;;;;;;36.38;22.90;;;7.80;89.00;;;;;;5073194;28;20032;-76
2022/03/20 08:10:28;;;;;;;38.33;24.38;;;7.90;88.50;;;;;;5070366;28;20040;-74
2022/03/20 08:12:54;;;;;;;34.92;22.83;;;8.00;88.30;;;;;;5071341;28;20370;-72
2022/03/20 08:15:20;;;;;;;38.08;23.65;;;8.10;87.90;;;;;;5070957;28;20116;-72
2022/03/20 08:17:47;;;;;;;35.35;23.10;;;8.20;86.70;;;;;;5070371;28;20048;-74
2022/03/20 08:20:14;;;;;;;39.05;23.95;;;8.30;86.60;;;;;;5053212;28;20029;-75
2022/03/20 08:22:40;;;;;;;35.53;24.17;;;8.40;85.60;;;;;;5070424;28;20075;-71
2022/03/20 08:25:07;;;;;;;33.58;23.27;;;8.50;85.50;;;;;;5067434;28;20120;-74
2022/03/20 08:27:46;;;;;;;35.88;23.83;;;8.60;83.70;;;;;;5050401;28;20025;-74
2022/03/20 08:30:15;;;;;;;38.15;25.25;;;8.90;94.60;;;;;;5051275;28;20028;-76
2022/03/20 08:32:41;;;;;;;36.42;23.45;;;9.00;83.20;;;;;;5053282;28;20120;-73
2022/03/20 08:35:08;;;;;;;35.60;23.85;;;9.10;82.00;;;;;;5054871;28;20028;-75
2022/03/20 08:37:34;;;;;;;34.72;23.60;;;9.20;81.40;;;;;;5054106;28;20017;-75
2022/03/20 08:40:02;;;;;;;38.17;23.45;;;;;;;;;;5055026;28;20045;-76
2022/03/20 08:42:32;;;;;;;38.58;24.80;;;9.60;94.00;;;;;;5054325;28;20082;-72
2022/03/20 08:44:58;;;;;;;34.60;24.02;;;;;;;;;;5055335;28;20021;-75
2022/03/20 08:47:25;;;;;;;36.17;23.55;;;9.70;90.20;;;;;;5054372;28;20082;-74
2022/03/20 08:49:51;;;;;;;34.45;22.85;;;9.80;89.90;;;;;;5059035;28;20040;-78
2022/03/20 08:52:17;;;;;;;35.60;24.00;;;9.80;89.70;;;;;;5074229;28;20393;-77
2022/03/20 08:54:43;;;;;;;38.05;23.52;;;10.00;88.90;;;;;;5073038;28;20378;-76
2022/03/20 08:57:09;;;;;;;35.60;24.70;;;10.10;83.10;;;;;;5073060;28;20032;-86
2022/03/20 08:59:35;;;;;;;35.33;22.95;;;10.20;75.50;;;;;;5074019;28;20051;-83
2022/03/20 09:02:00;;;;;;;33.40;22.45;;;10.40;76.00;;;;;;5074677;28;20032;-82
2022/03/20 09:04:27;;;;;;;38.13;24.38;;;10.50;79.00;;;;;;5073731;28;20111;-78
2022/03/20 09:06:52;;;;;;;36.97;24.20;;;10.50;71.70;;;;;;5073454;28;20033;-80
2022/03/20 09:09:18;;;;;;;37.10;24.52;;;10.60;71.20;;;;;;5074457;28;20048;-85
2022/03/20 09:11:45;;;;;;;34.95;24.48;;;10.70;71.00;;;;;;5073639;28;20029;-78
2022/03/20 09:14:11;;;;;;;36.78;24.45;;;11.10;78.50;;;;;;5074182;28;20040;-83
2022/03/20 09:19:22;;;;;;;36.72;23.98;;;11.20;82.20;;;;;;5073668;28;20051;-80
2022/03/20 09:21:48;;;;;;;36.50;24.20;;;;;;;;;;5073173;28;20291;-76
2022/03/20 09:24:15;;;;;;;40.00;24.02;;;11.40;90.50;;;;;;5073775;28;20094;-75
2022/03/20 09:26:41;;;;;;;36.33;24.55;;;11.50;82.10;;;;;;5056746;28;20025;-79
2022/03/20 09:29:08;;;;;;;35.50;23.42;;;11.50;67.10;;;;;;5053695;28;20029;-81
2022/03/20 09:31:34;;;;;;;31.50;21.77;;;11.50;66.80;;;;;;5053355;28;20505;-70
2022/03/20 09:34:01;;;;;;;40.60;24.33;;;11.60;67.20;;;;;;5054431;28;20067;-79
2022/03/20 09:36:29;;;;;;;36.40;24.73;;;11.60;68.00;;;;;;5055432;28;20033;-73
2022/03/20 09:38:55;;;;;;;35.10;23.85;;;11.80;67.00;;;;;;5052893;28;20029;-73
2022/03/20 09:41:28;;;;;;;36.88;23.90;;;12.00;67.40;;;;;;5053396;28;20481;-75
2022/03/20 09:43:54;;;;;;;34.28;24.55;;;;;;;;;;5055703;28;20164;-74
2022/03/20 09:46:25;;;;;;;32.70;23.52;;;;;;;;;;5073735;28;20096;-74
2022/03/20 09:48:52;;;;;;;37.22;24.08;;;;;;;;;;5072363;28;20028;-73
2022/03/20 09:51:18;;;;;;;33.17;22.90;;;;;;;;;;5073035;28;20132;-74
2022/03/20 09:53:44;;;;;;;35.65;24.23;;;12.80;64.00;;;;;;5072607;28;20063;-74
2022/03/20 09:56:11;;;;;;;35.80;24.15;;;12.90;63.60;;;;;;5060960;28;20053;-72
2022/03/20 09:58:36;;;;;;;32.42;22.63;;;13.00;63.40;;;;;;5052520;28;20029;-80
2022/03/20 10:01:02;;;;;;;35.95;23.95;;;13.20;64.00;;;;;;5053256;28;20032;-75
2022/03/20 10:03:28;;;;;;;34.60;23.42;;;13.50;62.80;;;;;;5049619;28;20025;-73
2022/03/20 10:06:09;;;;;;;31.58;21.95;;;13.80;61.90;;;;;;5071955;28;20021;-74
2022/03/20 10:08:35;;;;;;;31.85;21.05;;;14.10;61.40;;;;;;5073739;28;20473;-75
2022/03/20 10:11:18;;;;;;;32.72;20.95;;;14.70;59.20;;;;;;5072889;28;20036;-75
2022/03/20 10:14:10;;;;;;;30.65;18.48;;;15.30;58.00;;;;;;5071720;28;20025;-74
2022/03/20 10:16:41;;;;;;;38.67;20.23;;;15.70;57.10;;;;;;5072206;28;20036;-72
2022/03/20 10:19:26;;;;;;;32.30;21.85;;;16.00;55.60;;;;;;5073302;28;20077;-73
2022/03/20 10:22:06;;;;;;;29.08;19.27;;;16.30;55.10;;;;;;5072628;28;20059;-73
2022/03/20 10:24:48;;;;;;;27.60;19.65;;;16.60;54.90;;;;;;5072067;28;20503;-71
2022/03/20 10:27:14;;;;;;;24.88;17.60;;;16.80;53.90;;;;;;5072763;28;20029;-71
2022/03/20 10:29:58;;;;;;;25.33;18.08;;;16.90;54.50;;;;;;5054157;28;20090;-72
2022/03/20 10:32:24;;;;;;;25.77;17.17;;;16.90;55.40;;;;;;5072532;28;20486;-73
2022/03/20 10:35:01;;;;;;;26.58;17.63;;;16.80;55.00;;;;;;5051662;28;20029;-74
2022/03/20 10:37:46;;;;;;;24.02;17.17;;;16.60;55.70;;;;;;5052594;28;20029;-76
2022/03/20 10:40:21;;;;;;;28.75;19.25;;;16.50;55.40;;;;;;5052373;28;20060;-75
2022/03/20 10:43:09;;;;;;;27.27;17.27;;;16.40;55.70;;;;;;5051345;28;20061;-71
2022/03/20 10:46:01;;;;;;;27.08;18.63;;;16.20;56.00;;;;;;5069246;28;20120;-71
2022/03/20 10:49:00;;;;;;;24.88;17.73;;;16.00;55.90;;;;;;5067463;28;20045;-73
2022/03/20 10:51:41;;;;;;;25.80;16.45;;;16.00;56.60;;;;;;5008154;28;20195;-73
2022/03/20 10:54:10;;;;;;;25.33;16.55;;;16.00;56.60;;;;;;5051370;28;20041;-74
2022/03/20 10:56:38;;;;;;;31.48;17.10;;;15.90;57.40;;;;;;5051389;28;20035;-74
2022/03/20 10:59:14;;;;;;;27.25;16.67;;;16.00;56.50;;;;;;5052225;28;20478;-74
2022/03/20 11:01:43;;;;;;;23.90;15.40;;;16.00;56.90;;;;;;5051273;28;20036;-73
2022/03/20 11:04:11;;;;;;;29.38;15.93;;;16.00;56.40;;;;;;5051971;28;20028;-75
2022/03/20 11:06:37;;;;;;;27.27;17.02;;;16.10;56.90;;;;;;5051016;28;20025;-74
2022/03/20 11:09:06;;;;;;;26.80;16.27;;;16.20;55.80;;;;;;5052334;28;20055;-73
2022/03/20 11:11:37;;;;;;;22.38;15.27;;;16.30;55.90;;;;;;5051868;28;20025;-72
2022/03/20 11:14:04;;;;;;;29.40;16.20;;;16.30;55.90;;;;;;5051794;28;20029;-74
2022/03/20 11:16:36;;;;;;;25.67;16.10;;;16.30;55.80;;;;;;5051906;28;20379;-75
2022/03/20 11:19:08;;;;;;;23.55;15.07;;;16.40;55.80;;;;;;5051834;28;20021;-74
2022/03/20 11:21:38;;;;;;;27.40;15.65;;;16.50;55.20;;;;;;5051078;28;20036;-72
2022/03/20 11:24:04;;;;;;;28.48;16.00;;;16.60;55.20;;;;;;5051691;28;20029;-74
2022/03/20 11:26:32;;;;;;;22.23;15.45;;;16.70;55.20;;;;;;5051899;28;20037;-74
2022/03/20 11:29:01;;;;;;;22.70;14.82;;;16.90;54.60;;;;;;5051299;28;20096;-74
2022/03/20 11:31:32;;;;;;;21.63;15.35;;;17.30;54.50;;;;;;5051794;28;20053;-75
2022/03/20 11:33:58;;;;;;;24.33;14.52;;;17.80;53.00;;;;;;5051273;28;20068;-74
2022/03/20 11:36:24;;;;;;;21.23;13.57;;;18.50;51.60;;;;;;5051617;28;20524;-74
2022/03/20 11:39:09;;;;;;;22.90;14.23;;;;;;;;;;5050794;28;20025;-74
2022/03/20 11:41:34;;;;;;;20.08;13.20;;;19.60;48.00;;;;;;5051191;28;20033;-72
2022/03/20 11:44:20;;;;;;;19.60;12.90;;;20.10;46.60;;;;;;5051148;28;20025;-74
2022/03/20 11:47:13;;;;;;;20.10;13.43;;;20.30;46.10;;;;;;5050651;28;20425;-74
2022/03/20 11:49:40;;;;;;;18.23;13.32;;;20.40;47.20;;;;;;5050383;28;20057;-74
2022/03/20 11:52:07;;;;;;;19.02;11.95;;;20.10;46.30;;;;;;5051351;28;20432;-74
2022/03/20 11:54:42;;;;;;;19.67;13.45;;;20.20;45.80;;;;;;5051185;28;20083;-72
2022/03/20 11:57:26;;;;;;;17.13;11.73;;;20.10;45.90;;;;;;5051738;28;20031;-74
2022/03/20 11:59:56;;;;;;;17.98;11.93;;;20.00;46.60;;;;;;5051259;28;20017;-74
2022/03/20 12:02:45;;;;;;;19.25;12.73;;;20.00;46.30;;;;;;5053018;28;20166;-75
2022/03/20 12:05:41;;;;;;;21.73;13.75;;;20.00;46.00;;;;;;5051402;28;20071;-75
2022/03/20 12:08:45;;;;;;;18.48;13.00;;;19.90;45.90;;;;;;5055457;28;20029;-73
2022/03/20 12:11:41;;;;;;;21.65;14.30;;;19.80;46.50;;;;;;5000193;28;20482;-74
2022/03/20 12:14:32;;;;;;;19.42;13.50;;;20.10;45.90;;;;;;5055151;28;20036;-74
2022/03/20 12:16:59;;;;;;;20.48;15.13;;;19.60;46.90;;;;;;5054556;28;20429;-74
2022/03/20 12:19:49;;;;;;;21.67;14.60;;;19.10;46.90;;;;;;5055218;28;20044;-74
2022/03/20 12:22:21;;;;;;;25.20;14.07;;;19.00;47.20;;;;;;5055261;28;20032;-74
2022/03/20 12:25:01;;;;;;;20.10;13.40;;;19.00;47.40;;;;;;5036118;28;20510;-74
2022/03/20 12:27:27;;;;;;;22.75;13.98;;;19.20;47.40;;;;;;5055008;28;20025;-74
2022/03/20 12:30:07;;;;;;;24.98;14.73;;;19.10;47.00;;;;;;5054232;28;20075;-74
2022/03/20 12:32:48;;;;;;;23.15;14.10;;;18.90;47.80;;;;;;5055032;28;20017;-74
2022/03/20 12:35:16;;;;;;;21.30;13.30;;;18.50;48.70;;;;;;5054680;28;20037;-74
2022/03/20 12:37:44;;;;;;;22.75;13.32;;;18.40;48.70;;;;;;5053798;28;20044;-74
2022/03/20 12:40:20;;;;;;;20.73;13.02;;;18.60;48.10;;;;;;5054978;28;20486;-74
2022/03/20 12:43:02;;;;;;;22.33;12.68;;;18.90;47.40;;;;;;5053822;28;20463;-74
2022/03/20 12:45:30;;;;;;;27.13;13.45;;;19.30;47.30;;;;;;5054638;28;20032;-74
2022/03/20 12:48:03;;;;;;;24.63;12.75;;;19.70;46.00;;;;;;5053731;28;20025;-74
2022/03/20 12:50:31;;;;;;;20.27;12.18;;;;;;;;;;5064378;28;20044;-74
2022/03/20 12:53:14;;;;;;;19.85;13.43;;;;;;;;;;5073682;28;20025;-74
2022/03/20 12:55:40;;;;;;;23.52;12.60;;;21.20;73.30;;;;;;5073655;28;20028;-73
2022/03/20 12:58:08;;;;;;;21.30;13.00;;;21.50;43.50;;;;;;5056443;28;20378;-74
2022/03/20 13:00:36;;;;;;;23.27;12.90;;;21.60;43.20;;;;;;5074371;28;20025;-74
2022/03/20 13:03:08;;;;;;;20.52;11.65;;;21.60;42.10;;;;;;5073813;28;20020;-74
2022/03/20 13:05:46;;;;;;;18.42;12.00;;;21.60;42.00;;;;;;5074035;28;20031;-75
2022/03/20 13:08:31;;;;;;;24.40;11.43;;;21.60;41.30;;;;;;5074079;28;20033;-73
2022/03/20 13:11:48;;;;;;;18.92;11.90;;;21.40;42.10;;;;;;5073281;28;20024;-73
2022/03/20 13:14:14;;;;;;;21.10;13.15;;;21.00;41.80;;;;;;5072867;28;20153;-74
2022/03/20 13:16:58;;;;;;;17.92;11.82;;;20.60;41.50;;;;;;5073024;28;20032;-73
2022/03/20 13:19:42;;;;;;;21.90;12.00;;;20.20;42.30;;;;;;5074262;28;20519;-73
2022/03/20 13:22:09;;;;;;;18.45;12.43;;;20.20;42.60;;;;;;5073739;28;20025;-73